Preview of NWS' New Version of Forecast
This preview is not operational and should not be used for support decisions.

Terminal Aerodrome Forecast (TAF)

Issued by National Weather Service (NWS)

                            
000
FTUS42 KCAE 202320
TAFOGB
TAF
KOGB 202320Z 2100/2124 12005KT P6SM FEW050
     FM210400 00000KT P6SM SKC
      TEMPO 2109/2112 4SM BR
     FM211400 11005KT P6SM FEW250=